Airfield :
LOGIN :

Register | Disclaimer

   EN    FR    IT 

 










Legend :    VFR   Marginal VFR   IFR   Intensive IFR   Very Intensive IFR
Visi :
Ceiling :
>= 8 km
>= 3000ft
5 to 8 km
1000 to 3000 ft
1500m to 5 km
500 to 1000 ft
800 to 1500m
200 to 500 ft
< 800m
< 200 ft
Symbols :   Thunderstorms  Fog  Heavy snow  Heavy precipitations  Wind > 20 kt
SIGMETs :     Misc.  Thunderstorms  Icing  Turbulence  Mountain Waves  Volcanic Ashes






- Airport Elevation : 297 ft
- IATA code : UIP


LFRQ - Quimper Pluguffan

CURRENT METAR :
  • 011230Z AUTO 05007KT CAVOK 10/04 Q1026 NOSIG

EXPIRED METARs :
  • 011200Z AUTO 04006KT CAVOK 09/04 Q1027 NOSIG
  • 011130Z AUTO 05008KT CAVOK 08/04 Q1027 NOSIG
  • 011100Z AUTO 04005KT 9000 NSC 08/04 Q1027 NOSIG
  • 011030Z AUTO 04005KT 8000 2600 NSC 07/03 Q1027 NOSIG
  • 011000Z AUTO 05005KT 9999 4700 NSC 06/03 Q1027 NOSIG

TAF TAF LFRQ
Valid from the 01 at 12:00 until the 02 at 12:00 UTC


011100Z 0112/0212 05007KT CAVOK
PROB40
TEMPO 0122/0210 3000 BR
PROB40
TEMPO 0203/0210 BKN003



MET'MAP, your aeronautical weather chart ! - Copyright ORBIFLY December 2007 - Disclaimer

ORBIFLY MET'MAP TEAM :

Programming & Development : Alexandra Zaïnal
Original concept : Baudouin d'Aumeries
Technical & hardware support : Manuel Goepfert
Assistance : Marc-Olivier Méhu




SOURCES & CREDITS :

   NOAA